Adamsville, AL

8:54 AM CDT on August 27, 2014 (GMT -0500)
Shady Grove | Change Station
CLOSE
Current Station
Personal Weather Station
Location: Adamsville, AL
Elevation: 535 ft
Nearby Weather Stations

Elev 535 ft 33.58 °N, 87.00 °W | Updated 9 seconds ago

Clear
Clear
70.3 °F
Feels Like 74 °F
N
1.6
Wind Variable Wind from SW
Gusts 1.6 mph

Today
High -- | Low -- °F
--% Chance of Precip.
Yesterday
High -- | Low -- °F
Precip. -- in
6:18 AM 7:19 PM
Waxing Crescent, 4% visible
Pressure 30.10 in
Visibility 10.0 miles
Clouds Few 25000 ft
Heat Index 74 °F
Dew Point 60 °F
Humidity 69%
Rainfall 0.00 in
Snow Depth Not available.
UV 1 out of 12
Pollen 9.30 out of 12
Ozone Good
PM2.5 Moderate
Flu Activity Not available.
METAR KBHM 271253Z VRB06KT 10SM FEW250 24/18 A3012 RMK AO2 SLP191 T02440183

More Conditions Fewer Conditions

Pressure 30.10 in
Visibility 10.0 miles
Clouds Few 25000 ft
Heat Index 74 °F
Dew Point 60 °F
Humidity 69%
Rainfall 0.00 in
Snow Depth Not available.
UV 1 out of 12
Pollen 9.30 out of 12
Ozone Good
PM2.5 Moderate
Flu Activity Not available.
METAR KBHM 271253Z VRB06KT 10SM FEW250 24/18 A3012 RMK AO2 SLP191 T02440183

More Conditions Fewer Conditions

10-Day Weather Forecast

Almanac

Astronomy

Aug. 27, 2014 Rise Set
Actual Time 6:18 AM CDT 7:19 PM CDT
Civil Twilight 5:52 AM CDT 7:45 PM CDT
Nautical Twilight 5:22 AM CDT 8:15 PM CDT
Astronomical Twilight 4:50 AM CDT 8:46 PM CDT
Moon 8:06 AM CDT 8:20 PM CDT
Length of Visible Light 13h 52m
Length of Day
13h 01m
Tomorrow will be 1m 59s shorter.
Waxing Crescent, 4% of the Moon is Illuminated
Today
Waxing Crescent
Sep 2
First Quarter
Sep 8
Full
Sep 15
Last Quarter
Sep 24
New

Today's Extremes

State Highs State Lows

Community

WunderPhotos

Upload Photos

1,747,684 photos uploaded!

Nearby

Air Quality

  Air Quality AQ Index Pollutant
Yesterday Good
PM10
Yesterday Good
OZONE
Current Moderate
PM2.5
Current Good
OZONE
Wednesday Unhealthy for Sensitive Groups
OZONE
Wednesday Moderate
PM2.5

Snow Depth

Station Depth Elevation
No new snow has been reported.

Earthquake Activity

City Distance Mag. Time & Date
No recent earthquake activity has been reported nearby.
Minimum magnitude displayed is 2.5.

Coastal Water Temperatures

Place Temperature
No Stations Reporting

Nearby Weather Stations